Terminal Aerodrome Forecast
Issued by NWS

Home | Current Version | Previous Version | Text Only | Print | Product List | Glossary On
Versions: 1 2 3 4 5 6 7 8 9 10 11 12 13 14 15
858
FTAK31 PAJN 271136
TAFAJN
TAF
PAJN 271136Z 2712/2812 09010KT 6SM -RA BR FEW004 BKN030 OVC045
      TEMPO 2712/2716 4SM -RA BR SCT004 BKN025 OVC035
     FM272000 12012G22KT 3SM RA BR BKN020 OVC030
     FM280300 13012G20KT 4SM -RA BR BKN015 OVC025=

USA.gov is the U.S. government's official web portal to all federal, state and local government web resources and services.